Toronto, South Dakota
Current Conditions -  °F | °C
As of 10:33 AM on Monday 26 Jan 2015 (Local Time) from KCNB Reporting Station
Clear Clear  
Wind Chill: 36°   Ceiling: Unl
Heat Index: 43°   Visibility: 10mi
Dew Point: 35°   Wind: 15mph
Humidity: 73%   Direction: 300°WNW
Pressure: 29.83"   Gusts: NA
Location:  44.57°N, 96.64°W
Report Text: KCNB 261633Z AUTO 30013KT 10SM CLR 06/02 A2983 RMK AO2 T00610015
Loading
Personal Weather Stations






























Interactive Weather Map New forecast layout! Learn more

10-Day Weather Forecast

Advertisements
Track Severe Weather on mobile